createdAt,value
2023-03-17T00:01:57.687Z,2.62
2023-03-17T00:04:27.567Z,2.58
2023-03-17T00:06:56.676Z,2.17
2023-03-17T00:09:24.925Z,2.20
2023-03-17T00:11:54.602Z,2.53
2023-03-17T00:14:22.880Z,2.20
2023-03-17T00:16:53.264Z,2.33
2023-03-17T00:19:27.400Z,1.90
2023-03-17T00:21:56.235Z,1.92
2023-03-17T00:24:24.865Z,1.85
2023-03-17T00:26:54.219Z,2.25
2023-03-17T00:29:22.214Z,2.28
2023-03-17T00:31:51.620Z,2.92
2023-03-17T00:34:24.313Z,2.45
2023-03-17T00:36:53.429Z,2.12
2023-03-17T00:39:24.252Z,2.25
2023-03-17T00:41:56.524Z,1.83
2023-03-17T00:44:25.550Z,2.03
2023-03-17T00:46:56.546Z,2.15
2023-03-17T00:49:26.304Z,2.53
2023-03-17T00:51:55.048Z,2.12
2023-03-17T00:54:23.226Z,2.12
2023-03-17T00:56:53.646Z,1.90
2023-03-17T00:59:28.141Z,2.22
2023-03-17T01:01:56.697Z,2.15
2023-03-17T01:04:25.575Z,1.98
2023-03-17T01:06:54.140Z,2.37
2023-03-17T01:09:26.891Z,1.98
2023-03-17T01:11:55.618Z,2.30
2023-03-17T01:14:25.774Z,2.00
2023-03-17T01:16:55.173Z,2.50
2023-03-17T01:19:24.031Z,1.77
2023-03-17T01:21:52.288Z,1.90
2023-03-17T01:24:21.014Z,2.33
2023-03-17T01:26:49.297Z,2.08
2023-03-17T01:29:17.559Z,2.03
2023-03-17T01:31:47.654Z,2.62
2023-03-17T01:34:16.526Z,1.73
2023-03-17T01:36:44.653Z,1.77
2023-03-17T01:39:12.859Z,1.60
2023-03-17T01:41:41.365Z,2.13
2023-03-17T01:44:15.690Z,1.92
2023-03-17T01:46:45.511Z,2.12
2023-03-17T01:49:20.344Z,1.90
2023-03-17T01:51:55.490Z,1.58
2023-03-17T01:54:28.209Z,1.62
2023-03-17T01:56:59.718Z,2.08
2023-03-17T01:59:34.693Z,2.20
2023-03-17T02:02:06.862Z,1.75
2023-03-17T02:04:36.935Z,1.52
2023-03-17T02:07:06.058Z,1.75
2023-03-17T02:09:35.494Z,1.85
2023-03-17T02:12:05.281Z,1.80
2023-03-17T02:14:34.145Z,1.85
2023-03-17T02:17:03.908Z,1.48
2023-03-17T02:19:35.277Z,1.98
2023-03-17T02:22:05.038Z,2.00
2023-03-17T02:24:37.162Z,1.33
2023-03-17T02:27:09.752Z,1.85
2023-03-17T02:29:37.948Z,1.50
2023-03-17T02:32:06.917Z,1.87
2023-03-17T02:34:35.416Z,1.80
2023-03-17T02:37:07.802Z,1.70
2023-03-17T02:39:36.334Z,1.58
2023-03-17T02:42:05.500Z,1.58
2023-03-17T02:44:35.159Z,1.77
2023-03-17T02:47:04.298Z,1.50
2023-03-17T02:49:33.734Z,1.75
2023-03-17T02:52:01.662Z,1.73
2023-03-17T02:54:31.234Z,1.83
2023-03-17T02:56:59.175Z,1.25
2023-03-17T02:59:27.608Z,1.40
2023-03-17T03:01:58.022Z,1.45
2023-03-17T03:04:26.330Z,1.10
2023-03-17T03:06:54.716Z,1.40
2023-03-17T03:09:24.262Z,1.25
2023-03-17T03:11:53.518Z,1.62
2023-03-17T03:14:21.428Z,1.95
2023-03-17T03:16:49.872Z,1.92
2023-03-17T03:19:18.574Z,1.55
2023-03-17T03:21:46.636Z,1.73
2023-03-17T03:24:14.878Z,1.90
2023-03-17T03:26:42.960Z,1.58
2023-03-17T03:29:12.182Z,1.70
2023-03-17T03:31:40.615Z,1.37
2023-03-17T03:34:08.573Z,1.62
2023-03-17T03:36:37.005Z,1.48
2023-03-17T03:39:05.174Z,1.87
2023-03-17T03:41:33.528Z,1.45
2023-03-17T03:44:01.626Z,1.70
2023-03-17T03:46:31.355Z,1.35
2023-03-17T03:48:59.345Z,1.52
2023-03-17T03:51:27.288Z,1.75
2023-03-17T03:53:55.463Z,1.40
2023-03-17T03:56:23.363Z,1.85
2023-03-17T03:58:51.272Z,1.40
2023-03-17T04:01:19.676Z,1.60
2023-03-17T04:03:49.140Z,1.30
2023-03-17T04:06:17.307Z,1.62
2023-03-17T04:08:45.194Z,1.62
2023-03-17T04:11:13.351Z,1.48
2023-03-17T04:13:41.480Z,1.42
2023-03-17T04:16:09.816Z,1.42
2023-03-17T04:18:38.094Z,1.98
2023-03-17T04:21:08.320Z,1.40
2023-03-17T04:23:39.581Z,1.92
2023-03-17T04:26:08.574Z,1.58
2023-03-17T04:28:36.514Z,1.62
2023-03-17T04:31:04.528Z,1.20
2023-03-17T04:33:32.880Z,1.50
2023-03-17T04:36:00.781Z,1.35
2023-03-17T04:38:30.157Z,1.58
2023-03-17T04:40:59.128Z,1.20
2023-03-17T04:43:27.152Z,1.15
2023-03-17T04:45:55.107Z,1.50
2023-03-17T04:48:23.366Z,1.60
2023-03-17T04:50:51.448Z,1.58
2023-03-17T04:53:19.510Z,1.30
2023-03-17T04:55:49.548Z,1.40
2023-03-17T04:58:30.060Z,1.50
2023-03-17T05:00:59.422Z,1.30
2023-03-17T05:03:28.585Z,1.00
2023-03-17T05:05:57.448Z,0.93
2023-03-17T05:08:28.285Z,1.25
2023-03-17T05:10:59.340Z,1.45
2023-03-17T05:13:27.894Z,1.60
2023-03-17T05:15:56.998Z,0.98
2023-03-17T05:18:26.641Z,1.30
2023-03-17T05:20:55.669Z,1.33
2023-03-17T05:23:24.149Z,1.48
2023-03-17T05:25:52.704Z,0.95
2023-03-17T05:28:22.669Z,1.15
2023-03-17T05:30:50.760Z,1.23
2023-03-17T05:33:19.985Z,0.93
2023-03-17T05:35:48.259Z,1.02
2023-03-17T05:38:16.979Z,1.35
2023-03-17T05:40:45.701Z,1.30
2023-03-17T05:43:14.895Z,1.20
2023-03-17T05:45:45.096Z,1.58
2023-03-17T05:48:13.282Z,1.05
2023-03-17T05:50:41.913Z,1.52
2023-03-17T05:53:10.660Z,1.42
2023-03-17T05:55:38.998Z,1.15
2023-03-17T05:58:07.770Z,1.52
2023-03-17T06:00:36.462Z,0.93
2023-03-17T06:03:07.683Z,1.10
2023-03-17T06:05:35.943Z,1.00
2023-03-17T06:08:05.752Z,1.00
2023-03-17T06:10:34.650Z,1.20
2023-03-17T06:13:03.991Z,1.02
2023-03-17T06:15:34.224Z,0.80
2023-03-17T06:18:02.909Z,1.20
2023-03-17T06:20:32.274Z,1.35
2023-03-17T06:23:05.070Z,1.15
2023-03-17T06:25:34.672Z,1.08
2023-03-17T06:28:03.874Z,1.30
2023-03-17T06:30:32.877Z,1.30
2023-03-17T06:33:01.355Z,1.15
2023-03-17T06:35:30.336Z,1.15
2023-03-17T06:38:00.831Z,1.05
2023-03-17T06:40:29.277Z,1.30
2023-03-17T06:42:57.653Z,1.12
2023-03-17T06:45:26.033Z,1.08
2023-03-17T06:47:54.399Z,1.12
2023-03-17T06:50:23.044Z,1.55
2023-03-17T06:52:51.935Z,0.75
2023-03-17T06:55:22.249Z,0.80
2023-03-17T06:57:51.446Z,1.12
2023-03-17T07:00:21.039Z,1.42
2023-03-17T07:02:49.599Z,1.08
2023-03-17T07:05:18.621Z,1.02
2023-03-17T07:07:46.993Z,1.00
2023-03-17T07:10:15.968Z,1.12
2023-03-17T07:12:45.834Z,1.30
2023-03-17T07:15:13.917Z,1.33
2023-03-17T07:17:42.060Z,1.15
2023-03-17T07:20:11.927Z,1.15
2023-03-17T07:22:39.877Z,1.15
2023-03-17T07:25:09.676Z,0.98
2023-03-17T07:27:37.977Z,0.82
2023-03-17T07:30:08.889Z,1.23
2023-03-17T07:32:37.645Z,1.02
2023-03-17T07:35:07.356Z,1.40
2023-03-17T07:37:35.370Z,1.25
2023-03-17T07:40:03.645Z,1.05
2023-03-17T07:42:31.531Z,1.00
2023-03-17T07:44:59.651Z,0.90
2023-03-17T07:47:29.312Z,1.10
2023-03-17T07:49:58.240Z,1.37
2023-03-17T07:52:26.708Z,0.88
2023-03-17T07:54:55.981Z,1.17
2023-03-17T07:57:24.135Z,0.98
2023-03-17T07:59:52.301Z,1.17
2023-03-17T08:02:21.192Z,1.08
2023-03-17T08:04:51.032Z,0.85
2023-03-17T08:07:19.462Z,0.80
2023-03-17T08:09:47.856Z,1.10
2023-03-17T08:12:16.524Z,0.95
2023-03-17T08:14:44.602Z,0.85
2023-03-17T08:17:13.594Z,1.15
2023-03-17T08:19:42.417Z,1.40
2023-03-17T08:22:12.378Z,0.80
2023-03-17T08:24:42.974Z,0.93
2023-03-17T08:27:11.560Z,0.98
2023-03-17T08:29:39.659Z,0.80
2023-03-17T08:32:08.132Z,0.90
2023-03-17T08:34:36.536Z,0.80
2023-03-17T08:37:04.957Z,0.90
2023-03-17T08:39:35.005Z,1.00
2023-03-17T08:42:04.700Z,0.80
2023-03-17T08:44:33.270Z,1.20
2023-03-17T08:47:01.235Z,0.90
2023-03-17T08:49:29.534Z,1.00
2023-03-17T08:51:57.521Z,1.05
2023-03-17T08:54:25.506Z,1.27
2023-03-17T08:56:55.157Z,1.33
2023-03-17T08:59:23.131Z,1.02
2023-03-17T09:01:51.133Z,1.00
2023-03-17T09:04:19.776Z,0.73
2023-03-17T09:07:02.332Z,1.12
2023-03-17T09:09:32.108Z,1.10
2023-03-17T09:12:03.015Z,1.20
2023-03-17T09:14:40.086Z,1.17
2023-03-17T09:17:11.216Z,1.20
2023-03-17T09:19:40.488Z,1.00
2023-03-17T09:22:08.716Z,1.00
2023-03-17T09:24:36.876Z,1.10
2023-03-17T09:27:07.010Z,0.95
2023-03-17T09:29:35.663Z,1.25
2023-03-17T09:32:03.641Z,1.05
2023-03-17T09:34:31.929Z,1.20
2023-03-17T09:37:00.711Z,1.10
2023-03-17T09:39:28.833Z,1.20
2023-03-17T09:42:09.388Z,0.93
2023-03-17T09:45:13.390Z,1.10
2023-03-17T09:48:02.961Z,1.15
2023-03-17T09:50:39.062Z,1.12
2023-03-17T09:53:18.360Z,1.48
2023-03-17T09:55:49.085Z,1.40
2023-03-17T09:58:22.291Z,0.98
2023-03-17T10:00:50.291Z,0.90
2023-03-17T10:03:18.762Z,0.82
2023-03-17T10:05:46.921Z,0.95
2023-03-17T10:08:30.780Z,1.08
2023-03-17T10:11:06.253Z,0.90
2023-03-17T10:13:48.394Z,1.30
2023-03-17T10:16:20.733Z,1.00
2023-03-17T10:18:56.506Z,1.00
2023-03-17T10:21:30.243Z,1.08
2023-03-17T10:23:59.351Z,0.70
2023-03-17T10:26:32.250Z,1.00
2023-03-17T10:29:04.212Z,0.90
2023-03-17T10:31:35.438Z,1.05
2023-03-17T10:34:14.381Z,0.93
2023-03-17T10:36:45.015Z,0.90
2023-03-17T10:39:15.460Z,1.08
2023-03-17T10:41:53.044Z,0.80
2023-03-17T10:44:36.791Z,0.88
2023-03-17T10:47:05.159Z,0.82
2023-03-17T10:49:37.759Z,0.88
2023-03-17T10:52:08.877Z,0.95
2023-03-17T10:54:37.465Z,0.62
2023-03-17T10:57:10.580Z,0.90
2023-03-17T10:59:44.908Z,0.98
2023-03-17T11:02:24.991Z,0.60
2023-03-17T11:04:55.970Z,0.98
2023-03-17T11:07:31.218Z,0.70
2023-03-17T11:10:02.496Z,0.50
2023-03-17T11:12:36.967Z,0.73
2023-03-17T11:15:11.356Z,0.80
2023-03-17T11:17:45.343Z,0.73
2023-03-17T11:20:33.275Z,1.17
2023-03-17T11:23:07.708Z,0.70
2023-03-17T11:25:40.387Z,0.75
2023-03-17T11:28:19.840Z,0.90
2023-03-17T11:30:59.273Z,1.27
2023-03-17T11:33:35.403Z,0.90
2023-03-17T11:36:15.730Z,1.12
2023-03-17T11:38:56.067Z,1.00
2023-03-17T11:41:37.002Z,0.98
2023-03-17T11:44:53.748Z,0.88
2023-03-17T11:47:38.919Z,1.10
2023-03-17T11:50:20.784Z,0.80
2023-03-17T11:53:00.664Z,0.90
2023-03-17T11:55:35.295Z,0.90
2023-03-17T11:58:10.474Z,0.85
2023-03-17T12:00:43.978Z,0.60
2023-03-17T12:03:23.566Z,0.80
2023-03-17T12:05:56.387Z,0.88
2023-03-17T12:08:31.040Z,0.90
2023-03-17T12:11:01.950Z,0.98
2023-03-17T12:13:39.816Z,0.85
2023-03-17T12:16:11.390Z,0.90
2023-03-17T12:18:46.251Z,0.90
2023-03-17T12:21:22.545Z,0.90
2023-03-17T12:23:54.321Z,1.10
2023-03-17T12:26:30.224Z,1.17
2023-03-17T12:29:03.798Z,0.70
2023-03-17T12:31:35.288Z,1.00
2023-03-17T12:34:15.526Z,1.05
2023-03-17T12:36:44.641Z,1.08
2023-03-17T12:39:16.299Z,1.02
2023-03-17T12:41:59.656Z,0.95
2023-03-17T12:44:42.786Z,0.90
2023-03-17T12:47:31.407Z,0.80
2023-03-17T12:50:21.392Z,1.00
2023-03-17T12:53:14.235Z,0.90
2023-03-17T12:55:47.149Z,0.75
2023-03-17T12:58:33.388Z,0.70
2023-03-17T13:01:08.912Z,0.73
2023-03-17T13:03:46.709Z,1.00
2023-03-17T13:06:22.474Z,0.60
2023-03-17T13:08:52.089Z,0.88
2023-03-17T13:11:27.653Z,0.80
2023-03-17T13:14:15.455Z,0.82
2023-03-17T13:16:47.366Z,0.82
2023-03-17T13:19:22.665Z,0.77
2023-03-17T13:22:25.491Z,0.60
2023-03-17T13:24:55.592Z,0.90
2023-03-17T13:27:46.041Z,0.57
2023-03-17T13:30:43.821Z,0.90
2023-03-17T13:33:23.737Z,1.08
2023-03-17T13:36:09.561Z,0.73
2023-03-17T13:39:18.392Z,0.85
2023-03-17T13:42:01.090Z,1.00
2023-03-17T13:44:47.808Z,0.88
2023-03-17T13:47:27.197Z,0.77
2023-03-17T13:50:02.160Z,0.90
2023-03-17T13:52:33.948Z,0.80
2023-03-17T13:55:26.111Z,0.70
2023-03-17T13:57:57.704Z,0.82
2023-03-17T14:00:29.292Z,0.70
2023-03-17T14:03:03.457Z,0.80
2023-03-17T14:05:34.944Z,0.98
2023-03-17T14:08:05.532Z,0.77
2023-03-17T14:10:35.761Z,0.60
2023-03-17T14:13:14.258Z,1.00
2023-03-17T14:15:49.488Z,0.82
2023-03-17T14:18:20.652Z,0.90
2023-03-17T14:21:09.439Z,1.00
2023-03-17T14:23:39.598Z,0.52
2023-03-17T14:26:12.234Z,0.90
2023-03-17T14:28:40.627Z,0.57
2023-03-17T14:31:19.823Z,0.73
2023-03-17T14:33:48.042Z,0.60
2023-03-17T14:36:16.012Z,0.90
2023-03-17T14:38:49.084Z,0.80
2023-03-17T14:41:21.397Z,0.77
2023-03-17T14:43:51.237Z,0.70
2023-03-17T14:46:24.612Z,0.62
2023-03-17T14:48:58.682Z,0.43
2023-03-17T14:51:30.529Z,0.80
2023-03-17T14:54:01.323Z,0.77
2023-03-17T14:56:35.940Z,1.25
2023-03-17T14:59:07.465Z,1.37
2023-03-17T15:01:39.615Z,1.00
2023-03-17T15:04:12.829Z,1.12
2023-03-17T15:06:50.649Z,1.10
2023-03-17T15:09:21.246Z,0.95
2023-03-17T15:11:50.909Z,0.88
2023-03-17T15:14:24.015Z,1.52
2023-03-17T15:16:55.877Z,1.02
2023-03-17T15:19:28.689Z,1.10
2023-03-17T15:22:00.290Z,0.98
2023-03-17T15:24:40.850Z,1.20
2023-03-17T15:27:17.399Z,0.80
2023-03-17T15:29:45.587Z,1.08
2023-03-17T15:32:16.532Z,0.98
2023-03-17T15:34:44.425Z,0.85
2023-03-17T15:37:17.006Z,1.35
2023-03-17T15:39:45.654Z,1.23
2023-03-17T15:42:22.223Z,1.33
2023-03-17T15:44:50.894Z,0.90
2023-03-17T15:47:21.511Z,1.62
2023-03-17T15:49:51.359Z,1.62
2023-03-17T15:52:24.871Z,1.25
2023-03-17T15:54:54.523Z,1.10
2023-03-17T15:57:25.001Z,1.42
2023-03-17T15:59:53.138Z,1.50
2023-03-17T16:02:27.437Z,1.50
2023-03-17T16:04:56.539Z,1.52
2023-03-17T16:07:25.369Z,1.35
2023-03-17T16:09:53.660Z,1.45
2023-03-17T16:12:21.817Z,1.20
2023-03-17T16:14:51.538Z,0.93
2023-03-17T16:17:26.726Z,1.23
2023-03-17T16:19:56.348Z,1.30
2023-03-17T16:22:38.188Z,1.20
2023-03-17T16:25:19.069Z,0.95
2023-03-17T16:27:47.864Z,0.88
2023-03-17T16:30:19.943Z,1.25
2023-03-17T16:32:48.138Z,1.30
2023-03-17T16:35:18.185Z,0.95
2023-03-17T16:37:48.028Z,1.35
2023-03-17T16:40:22.018Z,1.02
2023-03-17T16:42:51.904Z,1.40
2023-03-17T16:45:29.077Z,1.27
2023-03-17T16:47:58.029Z,1.42
2023-03-17T16:50:28.195Z,1.27
2023-03-17T16:52:56.742Z,1.62
2023-03-17T16:55:27.101Z,1.05
2023-03-17T16:58:00.728Z,1.42
2023-03-17T17:00:32.201Z,0.90
2023-03-17T17:03:00.699Z,1.45
2023-03-17T17:05:31.205Z,0.77
2023-03-17T17:07:59.730Z,0.90
2023-03-17T17:10:30.573Z,1.30
2023-03-17T17:12:59.034Z,1.50
2023-03-17T17:15:27.547Z,1.52
2023-03-17T17:17:59.294Z,1.02
2023-03-17T17:20:30.865Z,1.45
2023-03-17T17:22:59.661Z,1.30
2023-03-17T17:25:28.591Z,1.33
2023-03-17T17:27:58.092Z,1.67
2023-03-17T17:30:28.349Z,1.15
2023-03-17T17:32:59.685Z,1.33
2023-03-17T17:35:32.344Z,1.00
2023-03-17T17:38:01.925Z,1.52
2023-03-17T17:40:31.007Z,1.60
2023-03-17T17:42:59.423Z,1.45
2023-03-17T17:45:27.814Z,1.23
2023-03-17T17:47:55.850Z,1.70
2023-03-17T17:50:28.506Z,1.30
2023-03-17T17:53:02.733Z,1.65
2023-03-17T17:55:30.959Z,1.55
2023-03-17T17:57:59.237Z,1.37
2023-03-17T18:00:28.321Z,1.30
2023-03-17T18:02:56.842Z,1.73
2023-03-17T18:05:26.317Z,1.87
2023-03-17T18:07:54.844Z,1.77
2023-03-17T18:10:25.869Z,1.60
2023-03-17T18:12:55.728Z,1.80
2023-03-17T18:15:25.346Z,1.60
2023-03-17T18:17:53.636Z,1.45
2023-03-17T18:20:23.146Z,1.77
2023-03-17T18:22:54.097Z,1.60
2023-03-17T18:25:22.604Z,2.12
2023-03-17T18:27:51.909Z,1.83
2023-03-17T18:30:23.355Z,1.23
2023-03-17T18:32:55.916Z,1.60
2023-03-17T18:35:27.062Z,1.42
2023-03-17T18:37:57.246Z,1.60
2023-03-17T18:40:26.041Z,1.58
2023-03-17T18:42:54.980Z,1.87
2023-03-17T18:45:23.776Z,2.25
2023-03-17T18:47:52.001Z,1.80
2023-03-17T18:50:22.022Z,1.65
2023-03-17T18:52:50.565Z,1.80
2023-03-17T18:55:21.620Z,1.45
2023-03-17T18:57:49.529Z,1.80
2023-03-17T19:00:19.004Z,2.12
2023-03-17T19:02:48.082Z,2.65
2023-03-17T19:05:16.727Z,3.00
2023-03-17T19:07:45.281Z,3.35
2023-03-17T19:10:15.103Z,3.70
2023-03-17T19:12:47.222Z,3.03
2023-03-17T19:15:18.346Z,2.83
2023-03-17T19:17:46.949Z,2.65
2023-03-17T19:20:15.958Z,2.30
2023-03-17T19:22:43.940Z,2.80
2023-03-17T19:25:12.667Z,2.12
2023-03-17T19:27:41.236Z,2.42
2023-03-17T19:30:12.959Z,2.25
2023-03-17T19:32:41.436Z,2.50
2023-03-17T19:35:10.798Z,2.80
2023-03-17T19:37:39.308Z,2.58
2023-03-17T19:40:10.593Z,3.08
2023-03-17T19:42:39.045Z,2.47
2023-03-17T19:45:09.173Z,2.78
2023-03-17T19:47:38.486Z,3.08
2023-03-17T19:50:07.593Z,2.55
2023-03-17T19:52:36.278Z,2.67
2023-03-17T19:55:08.086Z,2.80
2023-03-17T19:57:36.503Z,2.40
2023-03-17T20:00:09.242Z,2.40
2023-03-17T20:02:39.095Z,2.70
2023-03-17T20:05:08.931Z,2.50
2023-03-17T20:07:37.199Z,2.45
2023-03-17T20:10:07.742Z,2.80
2023-03-17T20:12:38.106Z,4.25
2023-03-17T20:15:08.086Z,3.35
2023-03-17T20:17:37.396Z,3.58
2023-03-17T20:20:09.238Z,3.10
2023-03-17T20:22:38.618Z,2.72
2023-03-17T20:25:08.840Z,2.80
2023-03-17T20:27:36.838Z,2.90
2023-03-17T20:30:05.604Z,2.80
2023-03-17T20:32:34.460Z,2.37
2023-03-17T20:35:02.915Z,2.45
2023-03-17T20:37:32.518Z,2.83
2023-03-17T20:40:02.812Z,2.37
2023-03-17T20:42:31.388Z,2.45
2023-03-17T20:44:59.981Z,2.65
2023-03-17T20:47:28.242Z,3.20
2023-03-17T20:49:58.737Z,2.67
2023-03-17T20:52:28.877Z,2.80
2023-03-17T20:55:00.128Z,2.83
2023-03-17T20:57:28.812Z,3.05
2023-03-17T20:59:58.103Z,2.55
2023-03-17T21:02:26.536Z,2.22
2023-03-17T21:04:54.729Z,2.80
2023-03-17T21:07:24.208Z,2.40
2023-03-17T21:09:56.429Z,2.90
2023-03-17T21:12:26.218Z,2.90
2023-03-17T21:14:54.136Z,3.00
2023-03-17T21:17:22.831Z,2.45
2023-03-17T21:19:51.037Z,2.85
2023-03-17T21:22:18.986Z,2.65
2023-03-17T21:24:47.056Z,2.85
2023-03-17T21:27:15.797Z,2.90
2023-03-17T21:29:45.411Z,3.20
2023-03-17T21:32:13.498Z,2.20
2023-03-17T21:34:41.683Z,3.05
2023-03-17T21:37:12.939Z,2.37
2023-03-17T21:39:41.129Z,3.05
2023-03-17T21:42:10.535Z,3.08
2023-03-17T21:44:38.701Z,3.15
2023-03-17T21:47:08.229Z,2.83
2023-03-17T21:49:36.201Z,3.00
2023-03-17T21:52:04.618Z,3.17
2023-03-17T21:54:32.773Z,2.85
2023-03-17T21:57:00.801Z,2.70
2023-03-17T21:59:30.831Z,2.70
2023-03-17T22:01:59.619Z,3.10
2023-03-17T22:04:29.965Z,2.50
2023-03-17T22:07:01.061Z,2.90
2023-03-17T22:09:31.884Z,2.92
2023-03-17T22:12:01.184Z,2.90
2023-03-17T22:14:30.869Z,2.78
2023-03-17T22:17:02.867Z,3.37
2023-03-17T22:19:44.112Z,2.53
2023-03-17T22:22:12.897Z,2.30
2023-03-17T22:24:41.849Z,2.42
2023-03-17T22:27:11.777Z,2.85
2023-03-17T22:29:40.627Z,2.60
2023-03-17T22:32:12.856Z,2.62
2023-03-17T22:34:43.069Z,3.03
2023-03-17T22:37:14.702Z,2.45
2023-03-17T22:39:43.670Z,3.22
2023-03-17T22:42:12.858Z,3.10
2023-03-17T22:44:41.741Z,2.90
2023-03-17T22:47:17.034Z,2.60
2023-03-17T22:49:47.241Z,2.83
2023-03-17T22:52:18.542Z,2.72
2023-03-17T22:54:47.555Z,2.75
2023-03-17T22:57:16.403Z,3.12
2023-03-17T22:59:45.265Z,2.85
2023-03-17T23:02:16.255Z,3.58
2023-03-17T23:04:54.805Z,2.95
2023-03-17T23:07:31.747Z,3.08
2023-03-17T23:10:00.491Z,3.33
2023-03-17T23:12:30.103Z,3.45
2023-03-17T23:14:58.648Z,2.35
2023-03-17T23:17:28.635Z,2.90
2023-03-17T23:19:59.449Z,3.42
2023-03-17T23:22:27.788Z,3.53
2023-03-17T23:24:55.927Z,3.28
2023-03-17T23:27:24.135Z,3.45
2023-03-17T23:29:53.138Z,3.00
2023-03-17T23:32:21.117Z,3.50
2023-03-17T23:34:49.422Z,3.30
2023-03-17T23:37:18.860Z,3.05
2023-03-17T23:39:46.930Z,3.15
2023-03-17T23:42:16.993Z,3.15
2023-03-17T23:44:45.169Z,2.95
2023-03-17T23:47:14.623Z,3.17
2023-03-17T23:49:43.045Z,3.10
2023-03-17T23:52:11.332Z,3.22
2023-03-17T23:54:40.749Z,3.50
2023-03-17T23:57:09.253Z,3.12
2023-03-17T23:59:37.195Z,3.92
